Time;durP1;ratioP1;P1;durP2;ratioP2;P2;SDS_P1;SDS_P2;PMS_P1;PMS_P2;Temp;Humidity;BMP_temperature;BMP_pressure;BME280_temperature;BME280_humidity;BME280_pressure;Samples;Min_cycle;Max_cycle;Signal;HPM_P1;HPM_P2
2023/10/22 00:00:54;;;;;;;14.80;4.30;;;;;;;14.41;73.15;94972.00;107144;1272;24383;-81
2023/10/22 00:03:43;;;;;;;9.40;3.60;;;;;;;14.38;73.25;94976.88;107162;1270;24265;-81
2023/10/22 00:06:12;;;;;;;12.00;3.60;;;;;;;14.38;73.52;94985.05;107202;1272;23880;-81
2023/10/22 00:08:40;;;;;;;13.30;4.20;;;;;;;14.35;74.01;94986.73;107157;1272;24218;-80
2023/10/22 00:11:08;;;;;;;18.50;3.70;;;;;;;14.33;73.62;94996.39;107139;1272;25280;-81
2023/10/22 00:13:36;;;;;;;14.70;3.50;;;;;;;14.33;74.22;94984.20;107209;1272;22973;-79
2023/10/22 00:16:04;;;;;;;13.80;4.00;;;;;;;14.35;74.11;94987.64;107116;1272;22640;-79
2023/10/22 00:18:32;;;;;;;11.50;3.30;;;;;;;14.41;73.04;94968.44;107150;1272;23924;-80
2023/10/22 00:21:05;;;;;;;22.10;3.90;;;;;;;14.54;72.28;94960.64;106812;1272;26522;-81
2023/10/22 00:23:35;;;;;;;;;;;;;;;14.63;72.03;94950.17;107216;1272;25468;-80
2023/10/22 00:26:03;;;;;;;20.10;4.30;;;;;;;14.68;72.04;94933.46;107169;1272;22607;-80
2023/10/22 00:28:34;;;;;;;11.10;3.40;;;;;;;14.75;71.60;94932.63;107135;1272;24222;-80
2023/10/22 00:31:03;;;;;;;15.00;3.70;;;;;;;14.79;71.30;94927.16;107108;1272;22553;-81
2023/10/22 00:33:31;;;;;;;17.80;3.80;;;;;;;14.82;71.16;94921.70;106870;1272;22655;-81
2023/10/22 00:35:59;;;;;;;16.10;4.20;;;;;;;14.83;71.38;94925.34;107073;1272;22594;-80
2023/10/22 00:38:29;;;;;;;19.70;3.90;;;;;;;14.78;71.91;94923.31;107146;1260;22503;-81
2023/10/22 00:40:57;;;;;;;12.70;4.20;;;;;;;14.73;72.37;94917.33;106827;1272;24349;-81
2023/10/22 00:43:25;;;;;;;15.40;4.20;;;;;;;14.68;72.19;94916.64;107198;1272;22530;-81
2023/10/22 00:45:55;;;;;;;13.10;3.70;;;;;;;14.66;72.03;94912.31;106890;1272;22527;-80
2023/10/22 00:48:25;;;;;;;12.30;3.40;;;;;;;14.65;71.81;94916.42;107146;1272;24457;-79
2023/10/22 00:50:55;;;;;;;15.30;4.50;;;;;;;14.66;71.98;94909.84;107135;1272;25370;-80
2023/10/22 00:53:29;;;;;;;15.70;3.90;;;;;;;14.66;72.05;94902.94;106937;1272;22643;-81
2023/10/22 00:55:59;;;;;;;11.40;2.70;;;;;;;14.67;72.08;94898.47;107171;1272;25344;-81
2023/10/22 00:58:28;;;;;;;16.00;3.30;;;;;;;14.67;72.54;94898.64;107189;1272;22520;-81
2023/10/22 01:00:57;;;;;;;16.90;3.50;;;;;;;14.68;72.74;94903.03;107167;1272;22517;-80
2023/10/22 01:03:25;;;;;;;14.80;4.20;;;;;;;14.64;72.79;94907.46;107139;1272;25255;-80
2023/10/22 01:05:53;;;;;;;12.60;4.50;;;;;;;14.65;72.64;94910.42;107130;1272;22533;-81
2023/10/22 01:08:22;;;;;;;18.30;3.80;;;;;;;14.66;72.36;94914.80;107136;1272;25296;-81
2023/10/22 01:10:50;;;;;;;15.00;3.70;;;;;;;14.64;72.71;94915.23;107102;1272;22595;-80
2023/10/22 01:13:18;;;;;;;12.90;2.40;;;;;;;14.67;72.85;94915.80;107155;1272;22499;-80
2023/10/22 01:15:46;;;;;;;16.70;3.70;;;;;;;14.73;73.73;94913.63;107175;1272;22630;-80
2023/10/22 01:18:14;;;;;;;8.30;2.60;;;;;;;14.75;74.06;94908.42;107116;1272;23206;-81
2023/10/22 01:20:43;;;;;;;18.70;4.10;;;;;;;14.72;73.64;94913.48;107180;1272;22520;-80
2023/10/22 01:23:11;;;;;;;12.90;3.60;;;;;;;14.70;73.21;94916.40;106841;1272;22514;-80
2023/10/22 01:25:39;;;;;;;16.70;3.20;;;;;;;14.70;73.11;94914.45;106910;1263;22532;-81
2023/10/22 01:28:08;;;;;;;16.60;3.40;;;;;;;14.71;73.17;94914.05;107174;1272;22532;-81
2023/10/22 01:30:36;;;;;;;14.60;3.70;;;;;;;14.77;73.21;94910.58;106874;1272;25504;-81
2023/10/22 01:33:07;;;;;;;20.80;6.30;;;;;;;14.78;72.91;94902.59;107112;1272;23867;-80
2023/10/22 01:35:35;;;;;;;11.70;3.50;;;;;;;14.76;73.14;94899.34;106910;1248;22825;-80
2023/10/22 01:38:04;;;;;;;10.20;4.30;;;;;;;14.67;73.23;94889.60;107192;1272;22542;-81
2023/10/22 01:40:32;;;;;;;13.10;3.90;;;;;;;14.66;73.95;94880.98;107064;1272;24314;-81
2023/10/22 01:43:00;;;;;;;9.10;3.70;;;;;;;14.66;74.69;94878.50;107137;1272;22521;-80
2023/10/22 01:45:28;;;;;;;14.20;4.10;;;;;;;14.65;74.12;94875.70;107097;1272;25347;-80
2023/10/22 01:47:56;;;;;;;14.80;3.70;;;;;;;14.62;73.51;94874.61;107179;1272;22632;-80
2023/10/22 01:50:25;;;;;;;13.40;3.60;;;;;;;14.61;73.33;94877.66;107131;1272;24265;-80
2023/10/22 01:52:53;;;;;;;17.00;4.80;;;;;;;14.58;73.35;94879.95;107128;1272;22525;-80
2023/10/22 01:55:21;;;;;;;15.70;4.70;;;;;;;14.55;73.23;94879.02;107152;1272;22528;-80
2023/10/22 01:57:49;;;;;;;13.20;4.00;;;;;;;14.53;73.01;94874.67;107122;1272;22520;-80
2023/10/22 02:00:17;;;;;;;12.20;4.80;;;;;;;14.50;73.33;94882.06;107045;1272;22515;-81
2023/10/22 02:02:45;;;;;;;13.10;3.90;;;;;;;14.47;73.47;94884.50;107386;1272;22527;-81
2023/10/22 02:05:14;;;;;;;10.80;3.50;;;;;;;14.43;73.46;94876.36;107146;1272;24232;-80
2023/10/22 02:07:42;;;;;;;15.00;3.70;;;;;;;14.38;73.96;94867.02;107221;1272;23265;-80
2023/10/22 02:10:10;;;;;;;14.00;4.10;;;;;;;14.32;73.85;94863.74;106933;1272;25476;-79
2023/10/22 02:12:38;;;;;;;12.20;3.80;;;;;;;14.31;73.83;94862.91;107103;1272;24278;-80
2023/10/22 02:15:07;;;;;;;11.00;2.80;;;;;;;14.32;74.09;94863.73;107138;1272;22529;-80
2023/10/22 02:17:37;;;;;;;9.90;2.70;;;;;;;14.29;74.06;94861.92;107127;1272;22629;-81
2023/10/22 02:20:08;;;;;;;13.40;3.10;;;;;;;14.29;74.59;94864.05;106927;1272;22648;-80
2023/10/22 02:22:38;;;;;;;10.60;4.00;;;;;;;14.27;74.86;94860.96;107223;1272;24040;-81
2023/10/22 02:25:07;;;;;;;10.80;2.90;;;;;;;14.27;75.10;94852.27;107135;1272;22528;-80
2023/10/22 02:27:35;;;;;;;10.50;2.60;;;;;;;14.27;75.00;94851.21;107105;1272;24475;-80
2023/10/22 02:30:04;;;;;;;9.90;2.40;;;;;;;14.30;74.95;94857.48;107440;1272;24342;-80
2023/10/22 02:32:32;;;;;;;11.10;2.50;;;;;;;14.31;75.07;94860.59;107096;1272;22524;-80
2023/10/22 02:35:01;;;;;;;13.20;2.90;;;;;;;14.34;74.77;94866.69;107113;1270;22527;-80
2023/10/22 02:37:29;;;;;;;19.70;5.20;;;;;;;14.33;74.58;94875.56;107244;1272;22533;-81
2023/10/22 02:39:58;;;;;;;22.00;5.80;;;;;;;14.35;74.98;94876.73;107336;1272;22521;-81
2023/10/22 02:42:27;;;;;;;15.00;4.50;;;;;;;14.40;74.87;94872.57;107124;1272;25481;-81
2023/10/22 02:44:55;;;;;;;13.70;4.10;;;;;;;14.42;74.58;94873.76;107305;1272;22524;-81
2023/10/22 02:47:23;;;;;;;10.30;4.10;;;;;;;14.45;75.02;94872.36;107123;1272;25498;-81
2023/10/22 02:49:54;;;;;;;10.60;3.40;;;;;;;14.48;74.75;94878.42;107160;1272;22547;-81
2023/10/22 02:52:22;;;;;;;8.00;2.20;;;;;;;14.44;74.75;94880.02;107121;1272;22521;-81
2023/10/22 02:54:50;;;;;;;10.30;2.50;;;;;;;14.40;74.91;94888.68;106879;1271;22700;-80
2023/10/22 02:57:18;;;;;;;10.90;2.80;;;;;;;14.42;75.10;94887.20;107167;1272;25242;-80
2023/10/22 02:59:47;;;;;;;9.60;3.00;;;;;;;14.41;74.78;94898.73;107270;1272;22637;-80
2023/10/22 03:02:16;;;;;;;15.20;3.90;;;;;;;14.38;74.96;94895.69;107168;1272;22510;-81
2023/10/22 03:04:45;;;;;;;12.80;3.70;;;;;;;14.37;75.32;94908.14;107282;1272;22513;-81
2023/10/22 03:07:13;;;;;;;18.60;3.90;;;;;;;14.37;75.29;94914.31;107270;1272;24196;-80
2023/10/22 03:09:41;;;;;;;10.30;3.20;;;;;;;14.38;75.23;94909.67;107283;1272;25528;-79
2023/10/22 03:12:11;;;;;;;10.40;3.10;;;;;;;14.39;74.96;94908.90;107163;1272;22525;-80
2023/10/22 03:14:41;;;;;;;10.80;4.10;;;;;;;14.41;74.63;94908.65;107227;1272;24037;-80
2023/10/22 03:17:09;;;;;;;13.30;3.50;;;;;;;14.39;74.56;94904.83;107206;1272;25690;-80
2023/10/22 03:19:38;;;;;;;25.10;8.70;;;;;;;14.38;74.29;94904.70;106952;1272;22526;-81
2023/10/22 03:22:09;;;;;;;22.70;7.50;;;;;;;14.31;74.64;94913.14;107180;1272;22592;-80
2023/10/22 03:24:38;;;;;;;21.40;7.10;;;;;;;14.22;74.66;94909.30;107000;1272;22536;-81
2023/10/22 03:27:06;;;;;;;11.80;3.80;;;;;;;14.19;74.44;94904.31;106991;1258;22520;-80
2023/10/22 03:29:34;;;;;;;8.30;2.70;;;;;;;14.14;75.26;94901.34;106830;1260;24257;-80
2023/10/22 03:32:03;;;;;;;17.20;6.00;;;;;;;14.16;74.95;94917.32;107159;1272;22523;-81
2023/10/22 03:34:31;;;;;;;21.20;5.30;;;;;;;14.16;75.16;94929.56;106920;1272;24198;-82
2023/10/22 03:37:00;;;;;;;9.90;3.60;;;;;;;14.14;75.34;94931.77;107094;1269;22517;-80
2023/10/22 03:39:29;;;;;;;19.70;4.00;;;;;;;14.15;75.25;94926.78;107379;1272;22517;-81
2023/10/22 03:41:57;;;;;;;14.00;4.80;;;;;;;14.16;75.19;94919.30;107060;1272;22548;-80
2023/10/22 03:44:26;;;;;;;13.40;3.10;;;;;;;14.19;75.11;94923.91;107162;1272;22627;-80
2023/10/22 03:46:54;;;;;;;10.80;3.10;;;;;;;14.23;75.02;94924.98;106883;1272;22527;-81
2023/10/22 03:49:22;;;;;;;13.50;3.50;;;;;;;14.26;75.09;94914.08;106854;1272;22525;-81
2023/10/22 03:51:50;;;;;;;12.10;4.00;;;;;;;14.24;74.96;94923.69;107369;1272;22540;-81
2023/10/22 03:54:18;;;;;;;11.60;3.90;;;;;;;14.24;75.08;94921.77;107215;1272;22568;-81
2023/10/22 03:56:46;;;;;;;18.20;4.90;;;;;;;14.22;75.29;94930.14;107151;1272;24687;-80
2023/10/22 03:59:14;;;;;;;14.80;4.80;;;;;;;14.22;75.31;94933.38;107296;1272;22504;-80
2023/10/22 04:01:42;;;;;;;18.70;6.80;;;;;;;14.24;75.36;94926.71;107296;1272;22534;-80
2023/10/22 04:04:11;;;;;;;24.90;8.40;;;;;;;14.18;75.47;94933.50;107162;1272;24244;-80
2023/10/22 04:06:39;;;;;;;20.70;7.00;;;;;;;14.14;75.09;94934.42;107053;1272;24732;-82
2023/10/22 04:09:07;;;;;;;13.40;5.00;;;;;;;14.11;75.05;94929.05;107220;1272;25368;-82
2023/10/22 04:11:35;;;;;;;12.10;3.70;;;;;;;14.09;75.12;94939.05;107149;1272;22517;-81
2023/10/22 04:14:03;;;;;;;10.20;4.00;;;;;;;14.04;75.42;94937.10;107181;1272;22527;-81
2023/10/22 04:16:32;;;;;;;12.40;4.50;;;;;;;13.98;75.41;94941.66;107135;1272;22500;-78
2023/10/22 04:19:00;;;;;;;12.50;3.90;;;;;;;14.16;72.05;94942.96;107181;1272;22517;-81
2023/10/22 04:21:28;;;;;;;10.80;3.40;;;;;;;14.56;70.22;94948.17;106938;1272;22978;-80
2023/10/22 04:23:56;;;;;;;12.30;4.50;;;;;;;14.97;68.17;94957.50;107340;1272;24288;-79
2023/10/22 04:26:24;;;;;;;11.50;4.00;;;;;;;15.08;68.97;94962.83;107071;1272;22518;-80
2023/10/22 04:28:52;;;;;;;10.20;3.80;;;;;;;14.97;69.49;94960.13;106856;1272;22517;-80
2023/10/22 04:31:20;;;;;;;10.90;3.40;;;;;;;14.85;69.39;94962.99;107126;1272;25300;-81
2023/10/22 04:33:48;;;;;;;7.60;3.40;;;;;;;14.92;68.01;94973.11;107131;1272;24276;-81
2023/10/22 04:36:21;;;;;;;9.80;3.40;;;;;;;15.14;66.72;94976.01;107261;1272;25336;-82
2023/10/22 04:38:49;;;;;;;6.30;3.10;;;;;;;15.32;65.29;94973.39;106870;1272;22506;-82
2023/10/22 04:41:17;;;;;;;10.80;3.60;;;;;;;15.50;65.03;94982.65;107119;1272;25396;-83
2023/10/22 04:43:45;;;;;;;9.90;3.70;;;;;;;15.48;65.83;94987.73;107346;1263;24669;-83
2023/10/22 04:46:13;;;;;;;16.90;4.40;;;;;;;15.34;66.73;94991.54;107154;1263;24318;-82
2023/10/22 04:48:42;;;;;;;8.10;4.20;;;;;;;15.16;67.21;94992.05;107279;1272;22531;-80
2023/10/22 04:51:11;;;;;;;10.30;3.50;;;;;;;15.04;67.23;94990.96;107351;1272;23895;-82
2023/10/22 04:53:39;;;;;;;8.40;3.50;;;;;;;14.98;67.97;94998.86;107133;1272;24261;-82
2023/10/22 04:56:07;;;;;;;5.70;3.40;;;;;;;14.85;68.69;94999.11;107279;1272;24238;-82
2023/10/22 04:58:35;;;;;;;11.50;3.60;;;;;;;14.70;69.38;94991.64;107374;1272;22519;-82
2023/10/22 05:01:03;;;;;;;9.90;3.20;;;;;;;14.59;69.69;94999.38;107267;1272;22590;-82
2023/10/22 05:03:31;;;;;;;9.20;3.10;;;;;;;14.51;69.99;94993.83;107392;1272;22742;-82
2023/10/22 05:06:05;;;;;;;11.60;2.50;;;;;;;14.46;70.19;94991.23;107269;1272;25236;-82
2023/10/22 05:08:39;;;;;;;10.20;3.00;;;;;;;14.44;70.36;94992.38;107099;1272;24217;-82
2023/10/22 05:11:15;;;;;;;8.40;2.90;;;;;;;14.44;70.78;94987.44;107344;1272;22517;-82
2023/10/22 05:13:44;;;;;;;7.50;2.90;;;;;;;14.43;70.91;94998.45;107051;1272;24047;-80
2023/10/22 05:16:12;;;;;;;8.40;2.40;;;;;;;14.50;70.89;94998.86;107245;1272;22618;-82
2023/10/22 05:18:41;;;;;;;8.00;2.70;;;;;;;14.53;71.19;95006.70;107155;1272;22638;-82
2023/10/22 05:21:09;;;;;;;8.70;2.40;;;;;;;14.53;70.80;95011.14;107293;1272;22520;-81
2023/10/22 05:23:37;;;;;;;7.50;2.60;;;;;;;14.62;70.66;95018.88;107274;1272;22519;-81
2023/10/22 05:26:14;;;;;;;6.90;2.20;;;;;;;14.68;70.86;95027.84;107346;1272;22514;-81
2023/10/22 05:28:43;;;;;;;6.70;2.20;;;;;;;14.67;70.56;95030.36;107146;1272;25424;-81
2023/10/22 05:31:18;;;;;;;10.40;2.40;;;;;;;14.68;70.08;95034.88;107416;1263;22525;-82
2023/10/22 05:33:47;;;;;;;6.80;1.90;;;;;;;14.94;65.65;95044.73;107036;1272;22775;-80
2023/10/22 05:36:17;;;;;;;6.70;1.80;;;;;;;15.41;63.46;95045.46;107206;1272;24052;-80
2023/10/22 05:38:49;;;;;;;7.10;2.10;;;;;;;15.72;63.28;95042.41;107277;1272;22534;-81
2023/10/22 05:41:22;;;;;;;7.50;2.10;;;;;;;15.91;62.31;95048.25;106912;1272;22521;-80
2023/10/22 05:43:51;;;;;;;;;;;;;;;16.12;60.59;95047.42;107054;1272;22781;-79
2023/10/22 05:46:19;;;;;;;7.40;1.70;;;;;;;16.37;58.00;95050.29;107253;1272;22513;-81
2023/10/22 05:48:47;;;;;;;8.70;1.80;;;;;;;16.53;57.38;95049.66;107139;1272;25351;-80
2023/10/22 05:51:15;;;;;;;5.40;2.10;;;;;;;16.64;57.25;95052.64;107080;1272;22544;-80
2023/10/22 05:53:45;;;;;;;10.00;1.90;;;;;;;16.77;56.45;95056.26;106885;1272;22743;-79
2023/10/22 05:56:13;;;;;;;7.50;1.80;;;;;;;16.87;55.55;95057.75;107130;1272;25293;-81
2023/10/22 05:58:43;;;;;;;5.30;1.20;;;;;;;16.93;56.02;95059.52;107220;1272;24346;-81
2023/10/22 06:01:11;;;;;;;7.40;1.50;;;;;;;16.97;55.73;95062.73;107200;1272;22513;-79
2023/10/22 06:03:39;;;;;;;5.30;1.60;;;;;;;17.03;55.36;95071.12;107136;1272;24212;-81
2023/10/22 06:06:10;;;;;;;7.70;1.70;;;;;;;17.08;54.97;95067.98;106897;1272;22677;-80
2023/10/22 06:08:38;;;;;;;7.80;1.50;;;;;;;17.13;54.47;95068.80;106879;1272;25337;-80
2023/10/22 06:11:06;;;;;;;4.60;1.00;;;;;;;17.18;54.37;95073.17;107218;1272;22521;-81
2023/10/22 06:13:35;;;;;;;7.50;1.50;;;;;;;17.20;54.17;95074.30;107224;1272;24228;-79
2023/10/22 06:16:03;;;;;;;5.70;1.70;;;;;;;17.25;53.78;95061.60;107306;1272;23116;-80
2023/10/22 06:18:31;;;;;;;9.70;1.90;;;;;;;17.32;53.34;95066.22;107280;1272;24221;-80
2023/10/22 06:20:59;;;;;;;9.80;2.10;;;;;;;17.39;53.01;95071.16;107423;1272;22520;-80
2023/10/22 06:23:28;;;;;;;9.70;1.70;;;;;;;17.42;53.51;95075.45;107155;1272;22538;-80
2023/10/22 06:25:56;;;;;;;6.40;1.60;;;;;;;17.42;54.00;95078.27;107360;1272;22541;-80
2023/10/22 06:28:24;;;;;;;5.00;1.40;;;;;;;17.41;54.07;95079.56;107184;1272;24368;-79
2023/10/22 06:30:52;;;;;;;3.70;1.40;;;;;;;17.40;54.26;95084.08;107029;1272;24245;-79
2023/10/22 06:33:20;;;;;;;6.70;1.20;;;;;;;17.38;54.08;95093.45;107128;1272;24250;-79
2023/10/22 06:35:48;;;;;;;6.90;1.70;;;;;;;17.37;53.94;95091.55;107217;1272;25294;-79
2023/10/22 06:38:16;;;;;;;6.40;1.50;;;;;;;17.36;53.79;95090.89;107141;1272;22533;-80
2023/10/22 06:40:44;;;;;;;8.70;1.50;;;;;;;17.36;54.38;95089.08;107393;1272;25348;-80
2023/10/22 06:43:12;;;;;;;7.50;1.60;;;;;;;17.35;54.05;95082.23;107390;1272;22518;-80
2023/10/22 06:45:41;;;;;;;7.70;1.80;;;;;;;17.34;54.57;95085.65;107361;1270;25583;-81
2023/10/22 06:48:09;;;;;;;6.40;1.70;;;;;;;17.30;56.11;95095.11;107393;1272;22525;-81
2023/10/22 06:50:37;;;;;;;3.50;1.40;;;;;;;17.23;57.16;95102.05;107350;1272;25371;-80
2023/10/22 06:53:05;;;;;;;8.00;1.60;;;;;;;17.18;55.98;95105.17;107102;1272;25497;-79
2023/10/22 06:55:33;;;;;;;8.60;1.10;;;;;;;17.20;54.81;95112.68;106866;1272;22536;-80
2023/10/22 06:58:01;;;;;;;5.80;1.10;;;;;;;17.27;54.69;95114.96;107197;1272;24231;-80
2023/10/22 07:00:30;;;;;;;3.80;1.10;;;;;;;17.31;54.62;95121.73;107150;1272;22527;-81
2023/10/22 07:02:58;;;;;;;6.90;1.40;;;;;;;17.36;54.05;95119.34;107129;1272;25297;-80
2023/10/22 07:05:26;;;;;;;5.80;1.00;;;;;;;17.40;54.76;95123.58;106856;1272;24476;-80
2023/10/22 07:07:54;;;;;;;11.40;1.50;;;;;;;17.43;54.56;95128.57;107117;1272;22524;-81
2023/10/22 07:10:22;;;;;;;5.70;1.50;;;;;;;17.46;55.12;95125.72;107163;1272;25287;-80
2023/10/22 07:12:50;;;;;;;7.20;1.30;;;;;;;17.48;54.59;95122.92;106879;1272;25420;-81
2023/10/22 07:15:19;;;;;;;7.80;1.40;;;;;;;17.48;54.11;95117.42;107215;1272;22533;-80
2023/10/22 07:17:48;;;;;;;4.40;1.00;;;;;;;17.49;54.48;95111.67;106972;1272;22518;-81
2023/10/22 07:20:17;;;;;;;6.20;1.10;;;;;;;17.49;54.53;95108.16;107044;1260;24230;-81
2023/10/22 07:22:45;;;;;;;9.70;1.20;;;;;;;17.50;54.18;95115.55;107248;1272;24250;-80
2023/10/22 07:25:13;;;;;;;7.70;1.40;;;;;;;17.51;53.61;95115.10;107246;1272;24240;-82
2023/10/22 07:27:41;;;;;;;4.40;1.10;;;;;;;17.55;54.16;95107.64;107264;1272;24215;-80
2023/10/22 07:30:11;;;;;;;3.70;1.10;;;;;;;17.59;54.65;95109.71;107353;1272;22526;-81
2023/10/22 07:32:39;;;;;;;9.50;1.10;;;;;;;17.62;54.69;95110.63;107397;1272;24212;-81
2023/10/22 07:35:08;;;;;;;4.20;1.00;;;;;;;17.64;54.35;95114.24;107144;1272;25306;-81
2023/10/22 07:37:37;;;;;;;5.00;0.90;;;;;;;17.69;54.62;95123.42;107113;1272;23915;-81
2023/10/22 07:40:06;;;;;;;5.80;0.90;;;;;;;17.74;54.33;95134.34;107201;1272;25413;-81
2023/10/22 07:42:34;;;;;;;7.90;1.20;;;;;;;17.77;53.51;95134.20;106794;1272;24298;-81
2023/10/22 07:45:03;;;;;;;3.90;0.80;;;;;;;17.82;53.83;95135.06;107096;1272;25291;-81
2023/10/22 07:47:31;;;;;;;4.60;0.70;;;;;;;17.85;53.78;95140.42;107106;1272;25324;-80
2023/10/22 07:49:59;;;;;;;8.50;1.10;;;;;;;17.87;52.80;95142.04;107149;1272;22786;-81
2023/10/22 07:52:30;;;;;;;5.60;1.20;;;;;;;17.98;52.67;95144.15;107303;1272;24215;-80
2023/10/22 07:54:58;;;;;;;6.10;1.30;;;;;;;18.19;52.23;95146.36;107131;1272;22518;-80
2023/10/22 07:57:28;;;;;;;5.90;1.10;;;;;;;18.33;52.31;95153.38;107131;1272;22612;-81
2023/10/22 07:59:56;;;;;;;4.10;1.00;;;;;;;18.37;52.09;95158.84;107212;1272;22610;-80
2023/10/22 08:02:24;;;;;;;2.50;0.90;;;;;;;18.40;52.20;95158.02;106938;1272;22646;-80
2023/10/22 08:04:53;;;;;;;7.60;1.30;;;;;;;18.41;51.94;95154.39;107257;1272;25243;-81
2023/10/22 08:07:21;;;;;;;5.50;0.90;;;;;;;18.37;51.56;95159.02;107181;1272;25412;-81
2023/10/22 08:09:49;;;;;;;3.10;1.10;;;;;;;18.42;51.96;95156.98;107137;1272;24435;-79
2023/10/22 08:12:17;;;;;;;3.00;1.00;;;;;;;18.51;51.96;95153.23;107122;1272;25335;-80
2023/10/22 08:14:45;;;;;;;4.30;1.20;;;;;;;18.61;51.93;95153.05;107180;1272;25291;-80
2023/10/22 08:17:13;;;;;;;6.40;1.50;;;;;;;18.69;50.90;95159.55;107364;1272;25334;-80
2023/10/22 08:19:41;;;;;;;7.80;1.20;;;;;;;18.70;50.59;95158.59;107078;1272;24352;-81
2023/10/22 08:22:09;;;;;;;4.00;1.40;;;;;;;18.64;51.30;95154.34;107129;1272;24212;-79
2023/10/22 08:24:37;;;;;;;4.80;1.40;;;;;;;18.57;52.15;95165.55;107134;1272;22527;-81
2023/10/22 08:27:06;;;;;;;5.20;1.30;;;;;;;18.52;52.04;95173.70;106882;1272;23959;-80
2023/10/22 08:29:37;;;;;;;2.60;0.70;;;;;;;18.41;50.81;95174.51;107314;1272;22805;-81
2023/10/22 08:32:05;;;;;;;6.50;1.00;;;;;;;18.36;50.74;95173.88;107401;1272;22520;-80
2023/10/22 08:34:33;;;;;;;3.60;0.80;;;;;;;18.32;50.39;95178.70;107296;1272;23129;-80
2023/10/22 08:37:03;;;;;;;8.60;1.30;;;;;;;18.37;50.22;95176.35;107181;1272;22639;-79
2023/10/22 08:39:31;;;;;;;2.90;0.80;;;;;;;18.43;50.10;95174.73;107291;1272;22524;-81
2023/10/22 08:42:06;;;;;;;5.00;0.60;;;;;;;18.48;50.60;95175.55;107118;1272;24243;-80
2023/10/22 08:44:44;;;;;;;3.70;0.80;;;;;;;18.68;50.05;95179.73;107124;1272;23339;-78
2023/10/22 08:47:13;;;;;;;5.40;0.80;;;;;;;18.86;49.77;95178.38;107264;1272;22520;-81
2023/10/22 08:49:41;;;;;;;3.50;0.60;;;;;;;19.07;49.95;95174.11;106885;1272;25372;-80
2023/10/22 08:52:09;;;;;;;1.60;0.80;;;;;;;19.37;48.94;95174.48;106860;1272;22531;-80
2023/10/22 08:54:38;;;;;;;44.80;35.30;;;;;;;19.53;48.70;95178.39;107108;1272;25414;-79
2023/10/22 08:57:07;;;;;;;157.00;95.00;;;;;;;19.56;48.65;95178.02;107274;1272;22554;-79
2023/10/22 08:59:37;;;;;;;40.20;31.20;;;;;;;19.76;49.09;95181.27;107276;1272;23871;-80
2023/10/22 09:02:11;;;;;;;6.10;3.20;;;;;;;19.87;48.60;95184.48;107323;1272;22730;-79
2023/10/22 09:04:40;;;;;;;16.80;11.50;;;;;;;19.92;48.58;95177.27;107169;1272;22516;-79
2023/10/22 09:07:09;;;;;;;13.50;10.00;;;;;;;19.92;48.54;95181.15;107257;1272;25256;-80
2023/10/22 09:09:39;;;;;;;4.90;0.70;;;;;;;19.81;48.21;95190.06;107067;1272;24333;-79
2023/10/22 09:12:12;;;;;;;6.10;2.90;;;;;;;19.73;48.02;95188.78;107067;1272;22514;-80
2023/10/22 09:14:44;;;;;;;3.10;1.20;;;;;;;19.79;48.61;95188.39;106872;1272;290765;-79
2023/10/22 09:17:17;;;;;;;7.00;1.60;;;;;;;19.80;48.24;95191.57;107105;1272;24237;-78
2023/10/22 09:19:49;;;;;;;5.60;1.50;;;;;;;19.69;48.02;95186.16;106846;1272;25540;-79
2023/10/22 09:22:22;;;;;;;6.00;0.80;;;;;;;19.69;48.57;95189.36;107144;1272;22533;-79
2023/10/22 09:24:54;;;;;;;5.60;1.20;;;;;;;19.69;48.34;95188.67;107145;1272;25366;-79
2023/10/22 09:27:26;;;;;;;3.70;0.90;;;;;;;19.62;48.84;95196.38;107106;1270;22529;-80
2023/10/22 09:30:00;;;;;;;6.00;1.40;;;;;;;19.55;48.97;95190.56;107294;1272;25386;-80
2023/10/22 09:32:28;;;;;;;4.40;2.60;;;;;;;19.38;49.25;95190.66;107283;1272;25233;-80
2023/10/22 09:35:18;;;;;;;9.90;5.20;;;;;;;19.31;50.28;95193.41;107338;1272;23899;-79
2023/10/22 09:37:51;;;;;;;5.20;0.90;;;;;;;19.26;50.24;95189.79;107224;1272;25409;-79
2023/10/22 09:40:23;;;;;;;1.70;0.70;;;;;;;19.20;50.36;95191.20;107115;1272;22540;-80
2023/10/22 09:42:52;;;;;;;3.70;0.80;;;;;;;19.14;50.53;95183.88;107164;1272;22630;-80
2023/10/22 09:45:23;;;;;;;4.90;0.90;;;;;;;19.15;51.33;95182.92;107108;1272;22527;-80
2023/10/22 09:47:55;;;;;;;3.70;0.70;;;;;;;19.16;50.55;95184.10;107232;1272;23138;-80
2023/10/22 09:50:45;;;;;;;2.70;0.70;;;;;;;19.16;50.49;95184.48;106975;1272;25495;-79
2023/10/22 09:53:17;;;;;;;11.30;1.30;;;;;;;19.17;50.97;95178.86;107178;1272;22524;-80
2023/10/22 09:55:49;;;;;;;3.20;1.10;;;;;;;19.26;51.52;95173.23;106845;1272;23909;-80
2023/10/22 09:58:24;;;;;;;7.10;2.30;;;;;;;19.36;50.80;95176.52;106931;1272;22570;-80
2023/10/22 10:00:53;;;;;;;4.70;1.00;;;;;;;19.46;50.79;95168.63;107183;1272;25258;-81
2023/10/22 10:03:22;;;;;;;8.80;1.80;;;;;;;19.70;51.47;95168.23;107201;1272;22524;-80
2023/10/22 10:05:51;;;;;;;6.30;2.50;;;;;;;19.98;51.43;95165.30;107113;1272;22517;-79
2023/10/22 10:08:20;;;;;;;6.50;1.90;;;;;;;20.27;50.95;95170.39;107127;1272;22537;-80
2023/10/22 10:10:48;;;;;;;6.00;1.00;;;;;;;20.54;48.65;95162.08;107116;1272;24260;-80
2023/10/22 10:13:17;;;;;;;6.70;1.50;;;;;;;20.57;48.25;95161.20;106914;1272;25294;-80
2023/10/22 10:15:57;;;;;;;8.50;2.00;;;;;;;20.53;48.73;95163.22;107084;1263;22533;-80
2023/10/22 10:19:00;;;;;;;5.60;0.90;;;;;;;20.53;49.16;95170.91;107232;1272;23030;-81
2023/10/22 10:21:34;;;;;;;7.80;2.30;;;;;;;20.50;49.54;95175.91;107162;1272;25350;-80
2023/10/22 10:24:16;;;;;;;5.80;1.80;;;;;;;20.47;49.06;95178.08;107128;1272;22576;-81
2023/10/22 10:26:46;;;;;;;7.20;3.80;;;;;;;20.36;49.09;95180.22;107275;1272;22552;-79
2023/10/22 10:29:21;;;;;;;5.50;1.00;;;;;;;20.28;48.52;95183.88;107158;1272;22524;-80
2023/10/22 10:31:51;;;;;;;4.50;1.90;;;;;;;20.18;48.75;95184.55;107147;1272;25155;-80
2023/10/22 10:34:25;;;;;;;8.10;3.20;;;;;;;20.05;48.51;95177.50;107211;1272;24262;-80
2023/10/22 10:36:53;;;;;;;6.00;2.00;;;;;;;20.12;48.76;95173.88;107123;1272;25384;-81
2023/10/22 10:39:50;;;;;;;2.90;0.70;;;;;;;20.19;48.79;95173.42;107142;1251;22580;-79
2023/10/22 10:42:30;;;;;;;6.10;1.50;;;;;;;20.22;49.43;95174.82;107093;1272;22541;-81
2023/10/22 10:45:01;;;;;;;5.50;2.00;;;;;;;20.40;49.41;95176.89;107121;1272;25938;-80
2023/10/22 10:47:37;;;;;;;4.90;0.90;;;;;;;20.72;48.88;95175.06;107104;1272;22770;-81
2023/10/22 10:50:13;;;;;;;8.30;0.90;;;;;;;20.88;48.20;95179.72;106907;1272;22761;-79
2023/10/22 10:52:41;;;;;;;4.70;1.00;;;;;;;21.14;47.45;95179.75;107158;1272;22524;-79
2023/10/22 10:55:18;;;;;;;6.20;1.10;;;;;;;21.56;46.74;95173.42;107175;1272;22518;-81
2023/10/22 10:57:49;;;;;;;4.00;0.90;;;;;;;21.84;46.40;95175.23;107098;1272;23202;-81
2023/10/22 11:00:30;;;;;;;4.00;1.00;;;;;;;21.79;45.88;95181.46;106895;1272;24284;-81
2023/10/22 11:03:02;;;;;;;3.10;1.30;;;;;;;21.74;45.76;95184.72;107212;1272;22563;-79
2023/10/22 11:05:39;;;;;;;7.60;1.30;;;;;;;21.70;45.58;95191.45;107176;1272;24637;-79
2023/10/22 11:08:12;;;;;;;5.10;1.20;;;;;;;21.68;45.11;95183.71;107185;1272;22526;-80
2023/10/22 11:10:41;;;;;;;3.30;0.90;;;;;;;21.98;45.59;95172.66;107187;1272;25480;-81
2023/10/22 11:13:09;;;;;;;4.40;1.00;;;;;;;22.80;44.64;95169.34;107124;1272;24272;-79
2023/10/22 11:15:38;;;;;;;4.10;1.00;;;;;;;23.66;43.66;95167.74;107187;1272;22537;-79
2023/10/22 11:18:11;;;;;;;7.40;1.50;;;;;;;24.36;41.57;95160.83;106953;1272;22540;-81
2023/10/22 11:20:40;;;;;;;3.20;0.80;;;;;;;24.71;39.66;95164.27;107180;1266;22573;-80
2023/10/22 11:23:18;;;;;;;5.40;1.00;;;;;;;25.07;39.37;95169.08;107185;1272;22551;-81
2023/10/22 11:25:47;;;;;;;4.10;0.80;;;;;;;25.51;38.19;95170.06;107166;1272;24247;-81
2023/10/22 11:28:15;;;;;;;4.40;0.80;;;;;;;25.77;38.20;95176.73;107129;1272;25427;-81
2023/10/22 11:30:43;;;;;;;3.80;1.00;;;;;;;25.54;38.71;95185.52;107110;1272;22534;-79
2023/10/22 11:33:28;;;;;;;6.20;1.00;;;;;;;25.21;38.52;95189.84;107140;1272;25293;-80